createdAt,value
2022-09-25T00:01:52.021Z,10.51
2022-09-25T00:04:55.639Z,10.50
2022-09-25T00:07:59.291Z,10.47
2022-09-25T00:11:08.895Z,10.49
2022-09-25T00:14:13.968Z,10.47
2022-09-25T00:17:17.580Z,10.49
2022-09-25T00:20:21.144Z,10.48
2022-09-25T00:23:25.653Z,10.47
2022-09-25T00:26:31.515Z,10.49
2022-09-25T00:29:39.064Z,10.49
2022-09-25T00:32:42.668Z,10.46
2022-09-25T00:35:46.256Z,10.45
2022-09-25T00:38:50.728Z,10.50
2022-09-25T00:41:55.029Z,10.51
2022-09-25T00:45:01.865Z,10.49
2022-09-25T00:48:11.739Z,10.51
2022-09-25T00:51:17.639Z,10.54
2022-09-25T00:54:26.640Z,10.49
2022-09-25T00:57:34.662Z,10.51
2022-09-25T01:00:39.763Z,10.52
2022-09-25T01:03:46.501Z,10.51
2022-09-25T01:06:51.212Z,10.52
2022-09-25T01:09:59.434Z,10.52
2022-09-25T01:13:03.587Z,10.52
2022-09-25T01:16:21.928Z,10.52
2022-09-25T01:19:46.902Z,10.59
2022-09-25T01:23:13.139Z,10.52
2022-09-25T01:26:48.600Z,10.55
2022-09-25T01:30:01.033Z,10.53
2022-09-25T01:33:15.080Z,10.53
2022-09-25T01:36:28.694Z,10.51
2022-09-25T01:39:40.236Z,10.52
2022-09-25T01:42:50.378Z,10.50
2022-09-25T01:45:59.316Z,10.51
2022-09-25T01:49:12.580Z,10.53
2022-09-25T01:52:23.792Z,10.51
2022-09-25T01:55:36.608Z,10.48
2022-09-25T01:58:49.103Z,10.49
2022-09-25T02:01:57.033Z,10.51
2022-09-25T02:05:10.763Z,10.51
2022-09-25T02:08:22.434Z,10.52
2022-09-25T02:11:32.223Z,10.54
2022-09-25T02:14:46.006Z,10.58
2022-09-25T02:18:14.991Z,10.53
2022-09-25T02:21:29.726Z,10.57
2022-09-25T02:24:43.520Z,10.52
2022-09-25T02:27:47.932Z,10.52
2022-09-25T02:30:55.436Z,10.52
2022-09-25T02:34:00.470Z,10.55
2022-09-25T02:37:04.439Z,10.53
2022-09-25T02:40:11.687Z,10.53
2022-09-25T02:43:32.954Z,10.54
2022-09-25T02:46:48.870Z,10.54
2022-09-25T02:50:05.604Z,10.54
2022-09-25T02:53:18.478Z,10.53
2022-09-25T02:56:33.155Z,10.53
2022-09-25T02:59:46.288Z,10.54
2022-09-25T03:02:53.686Z,10.54
2022-09-25T03:06:00.907Z,10.55
2022-09-25T03:09:08.318Z,10.57
2022-09-25T03:12:11.982Z,10.58
2022-09-25T03:15:15.580Z,10.59
2022-09-25T03:18:20.028Z,10.59
2022-09-25T03:21:24.996Z,10.58
2022-09-25T03:24:29.007Z,10.58
2022-09-25T03:27:32.785Z,10.59
2022-09-25T03:30:38.474Z,10.59
2022-09-25T03:33:44.639Z,10.58
2022-09-25T03:36:49.674Z,10.59
2022-09-25T03:39:53.194Z,10.60
2022-09-25T03:42:56.776Z,10.66
2022-09-25T03:46:00.619Z,10.63
2022-09-25T03:49:05.144Z,10.62
2022-09-25T03:52:12.911Z,10.64
2022-09-25T03:55:16.916Z,10.64
2022-09-25T03:58:20.757Z,10.66
2022-09-25T04:01:26.670Z,10.63
2022-09-25T04:04:30.345Z,10.64
2022-09-25T04:07:35.388Z,10.63
2022-09-25T04:10:40.383Z,10.62
2022-09-25T04:13:44.195Z,10.61
2022-09-25T04:16:47.847Z,10.60
2022-09-25T04:19:53.025Z,10.58
2022-09-25T04:22:58.024Z,10.59
2022-09-25T04:26:01.672Z,10.58
2022-09-25T04:29:05.879Z,10.55
2022-09-25T04:32:26.988Z,10.55
2022-09-25T04:35:30.588Z,10.57
2022-09-25T04:38:36.103Z,10.55
2022-09-25T04:41:39.724Z,10.54
2022-09-25T04:44:43.346Z,10.52
2022-09-25T04:47:47.053Z,10.45
2022-09-25T04:50:51.727Z,10.41
2022-09-25T04:53:57.692Z,10.37
2022-09-25T04:57:02.856Z,10.33
2022-09-25T05:00:08.813Z,10.29
2022-09-25T05:03:12.579Z,10.26
2022-09-25T05:06:16.234Z,10.21
2022-09-25T05:09:21.199Z,10.16
2022-09-25T05:12:24.820Z,10.13
2022-09-25T05:15:33.135Z,10.04
2022-09-25T05:18:36.854Z,10.01
2022-09-25T05:21:40.424Z,9.98
2022-09-25T05:24:45.378Z,10.00
2022-09-25T05:27:48.914Z,10.00
2022-09-25T05:30:52.795Z,10.00
2022-09-25T05:33:56.516Z,10.01
2022-09-25T05:37:00.075Z,9.98
2022-09-25T05:40:05.836Z,10.03
2022-09-25T05:43:09.591Z,10.04
2022-09-25T05:46:13.357Z,10.01
2022-09-25T05:49:17.220Z,9.99
2022-09-25T05:52:20.830Z,10.00
2022-09-25T05:55:26.211Z,9.90
2022-09-25T05:58:33.482Z,9.87
2022-09-25T06:01:37.141Z,9.80
2022-09-25T06:04:40.701Z,9.82
2022-09-25T06:07:44.247Z,9.81
2022-09-25T06:10:55.111Z,9.83
2022-09-25T06:13:58.678Z,9.81
2022-09-25T06:17:02.340Z,9.70
2022-09-25T06:20:09.831Z,9.66
2022-09-25T06:23:18.341Z,9.62
2022-09-25T06:26:24.567Z,9.63
2022-09-25T06:29:28.142Z,9.54
2022-09-25T06:32:31.745Z,9.57
2022-09-25T06:35:35.721Z,9.62
2022-09-25T06:38:39.807Z,9.65
2022-09-25T06:41:44.844Z,9.67
2022-09-25T06:44:48.405Z,9.73
2022-09-25T06:47:52.208Z,9.72
2022-09-25T06:50:58.068Z,9.64
2022-09-25T06:54:01.670Z,9.62
2022-09-25T06:57:09.282Z,9.66
2022-09-25T07:00:14.551Z,9.75
2022-09-25T07:03:36.168Z,9.82
2022-09-25T07:06:40.207Z,9.87
2022-09-25T07:09:43.755Z,9.88
2022-09-25T07:12:49.079Z,9.90
2022-09-25T07:15:53.919Z,10.02
2022-09-25T07:19:00.723Z,9.98
2022-09-25T07:22:05.135Z,10.04
2022-09-25T07:25:11.112Z,10.18
2022-09-25T07:28:19.054Z,10.24
2022-09-25T07:31:25.828Z,10.44
2022-09-25T07:34:29.548Z,10.47
2022-09-25T07:37:33.497Z,10.49
2022-09-25T07:40:37.373Z,10.63
2022-09-25T07:43:43.550Z,10.87
2022-09-25T07:46:47.317Z,11.06
2022-09-25T07:49:51.058Z,11.33
2022-09-25T07:52:55.355Z,11.36
2022-09-25T07:56:05.838Z,11.60
2022-09-25T07:59:11.927Z,11.74
2022-09-25T08:02:15.737Z,11.68
2022-09-25T08:05:19.415Z,11.90
2022-09-25T08:08:23.032Z,12.07
2022-09-25T08:11:28.103Z,12.05
2022-09-25T08:14:33.648Z,12.16
2022-09-25T08:17:37.309Z,12.39
2022-09-25T08:20:40.923Z,12.60
2022-09-25T08:23:50.319Z,12.72
2022-09-25T08:26:53.993Z,12.92
2022-09-25T08:29:59.379Z,12.72
2022-09-25T08:33:03.899Z,12.70
2022-09-25T08:36:07.965Z,12.63
2022-09-25T08:39:12.733Z,12.68
2022-09-25T08:42:24.392Z,12.92
2022-09-25T08:45:52.921Z,13.01
2022-09-25T08:49:06.395Z,13.14
2022-09-25T08:52:18.106Z,13.14
2022-09-25T08:55:50.787Z,13.25
2022-09-25T08:59:01.127Z,13.02
2022-09-25T09:02:15.759Z,13.03
2022-09-25T09:05:26.627Z,13.26
2022-09-25T09:08:34.784Z,13.35
2022-09-25T09:11:45.352Z,13.32
2022-09-25T09:14:53.496Z,13.31
2022-09-25T09:18:01.281Z,13.23
2022-09-25T09:21:15.629Z,13.26
2022-09-25T09:24:28.842Z,13.28
2022-09-25T09:28:03.953Z,13.60
2022-09-25T09:31:18.838Z,13.48
2022-09-25T09:35:04.889Z,13.86
2022-09-25T09:38:26.192Z,13.65
2022-09-25T09:41:49.611Z,13.64
2022-09-25T09:45:05.233Z,14.01
2022-09-25T09:48:22.452Z,13.92
2022-09-25T09:51:38.115Z,14.04
2022-09-25T09:54:50.742Z,14.29
2022-09-25T09:58:03.203Z,13.77
2022-09-25T10:01:28.939Z,13.78
2022-09-25T10:04:37.599Z,14.00
2022-09-25T10:07:45.188Z,14.02
2022-09-25T10:10:54.902Z,14.00
2022-09-25T10:14:03.319Z,13.76
2022-09-25T10:17:11.533Z,13.78
2022-09-25T10:20:22.853Z,13.89
2022-09-25T10:23:39.101Z,13.85
2022-09-25T10:26:42.772Z,14.08
2022-09-25T10:29:46.332Z,14.21
2022-09-25T10:33:01.072Z,14.31
2022-09-25T10:36:05.049Z,14.58
2022-09-25T10:39:49.823Z,14.99
2022-09-25T10:43:07.200Z,14.63
2022-09-25T10:46:16.006Z,14.61
2022-09-25T10:49:40.552Z,14.74
2022-09-25T10:52:53.860Z,14.95
2022-09-25T10:56:06.237Z,14.98
2022-09-25T10:59:20.174Z,14.58
2022-09-25T11:02:36.001Z,14.83
2022-09-25T11:05:39.780Z,14.77
2022-09-25T11:08:44.916Z,14.97
2022-09-25T11:11:53.351Z,14.87
2022-09-25T11:15:01.605Z,14.40
2022-09-25T11:18:06.198Z,14.45
2022-09-25T11:21:27.960Z,14.23
2022-09-25T11:24:48.381Z,13.95
2022-09-25T11:27:59.175Z,13.69
2022-09-25T11:31:12.720Z,13.28
2022-09-25T11:34:32.251Z,13.10
2022-09-25T11:37:48.065Z,13.04
2022-09-25T11:41:14.908Z,13.09
2022-09-25T11:44:34.360Z,13.15
2022-09-25T11:47:47.571Z,13.12
2022-09-25T11:51:09.666Z,13.27
2022-09-25T11:54:34.310Z,13.46
2022-09-25T11:57:52.947Z,13.79
2022-09-25T12:01:10.251Z,13.78
2022-09-25T12:04:41.729Z,13.69
2022-09-25T12:08:15.515Z,13.54
2022-09-25T12:11:38.066Z,13.93
2022-09-25T12:14:54.099Z,13.96
2022-09-25T12:18:15.308Z,13.79
2022-09-25T12:21:34.531Z,13.98
2022-09-25T12:25:03.287Z,14.52
2022-09-25T12:28:22.020Z,14.48
2022-09-25T12:31:42.919Z,14.36
2022-09-25T12:35:11.163Z,14.53
2022-09-25T12:38:31.421Z,14.70
2022-09-25T12:41:42.195Z,14.81
2022-09-25T12:44:55.838Z,14.80
2022-09-25T12:48:13.662Z,14.64
2022-09-25T12:51:25.852Z,14.82
2022-09-25T12:54:36.707Z,14.54
2022-09-25T12:57:51.220Z,14.57
2022-09-25T13:01:06.678Z,14.40
2022-09-25T13:04:50.167Z,14.35
2022-09-25T13:08:06.275Z,14.36
2022-09-25T13:11:18.097Z,14.17
2022-09-25T13:14:34.823Z,14.25
2022-09-25T13:17:40.059Z,14.09
2022-09-25T13:20:55.547Z,14.09
2022-09-25T13:24:00.838Z,14.14
2022-09-25T13:27:05.222Z,14.15
2022-09-25T13:30:21.737Z,14.20
2022-09-25T13:33:26.703Z,13.92
2022-09-25T13:36:48.157Z,14.18
2022-09-25T13:40:11.166Z,14.31
2022-09-25T13:43:24.194Z,14.21
2022-09-25T13:46:28.456Z,14.29
2022-09-25T13:49:37.134Z,14.21
2022-09-25T13:53:17.777Z,14.49
2022-09-25T13:56:47.111Z,14.30
2022-09-25T14:00:06.030Z,14.48
2022-09-25T14:03:34.140Z,14.43
2022-09-25T14:06:41.627Z,14.40
2022-09-25T14:09:51.525Z,14.40
2022-09-25T14:12:56.842Z,14.58
2022-09-25T14:16:04.775Z,14.52
2022-09-25T14:19:09.264Z,14.76
2022-09-25T14:22:26.119Z,14.80
2022-09-25T14:25:35.127Z,14.71
2022-09-25T14:28:49.470Z,14.59
2022-09-25T14:32:10.418Z,15.01
2022-09-25T14:35:36.470Z,14.88
2022-09-25T14:39:20.088Z,15.02
2022-09-25T14:43:30.088Z,14.70
2022-09-25T14:46:36.497Z,14.35
2022-09-25T14:49:46.079Z,14.01
2022-09-25T14:52:53.481Z,13.99
2022-09-25T14:56:01.801Z,14.14
2022-09-25T14:59:13.048Z,13.99
2022-09-25T15:02:24.595Z,13.82
2022-09-25T15:05:35.026Z,13.84
2022-09-25T15:08:42.964Z,13.89
2022-09-25T15:11:46.653Z,13.93
2022-09-25T15:15:02.928Z,13.90
2022-09-25T15:18:15.814Z,13.90
2022-09-25T15:21:28.231Z,13.77
2022-09-25T15:24:36.926Z,13.71
2022-09-25T15:27:43.741Z,13.78
2022-09-25T15:30:56.405Z,13.81
2022-09-25T15:34:13.448Z,13.82
2022-09-25T15:37:26.327Z,13.87
2022-09-25T15:40:32.123Z,13.77
2022-09-25T15:43:35.928Z,13.66
2022-09-25T15:46:45.060Z,13.71
2022-09-25T15:49:50.072Z,13.66
2022-09-25T15:53:00.278Z,13.63
2022-09-25T15:56:17.964Z,13.52
2022-09-25T15:59:29.283Z,13.44
2022-09-25T16:02:55.699Z,13.44
2022-09-25T16:06:03.450Z,13.47
2022-09-25T16:09:20.651Z,13.59
2022-09-25T16:12:30.725Z,13.63
2022-09-25T16:15:51.905Z,13.67
2022-09-25T16:18:57.171Z,13.58
2022-09-25T16:22:23.903Z,13.56
2022-09-25T16:25:33.091Z,13.54
2022-09-25T16:28:37.556Z,13.48
2022-09-25T16:31:43.549Z,13.29
2022-09-25T16:34:59.484Z,13.07
2022-09-25T16:38:05.273Z,13.00
2022-09-25T16:41:22.158Z,12.86
2022-09-25T16:44:47.248Z,12.69
2022-09-25T16:47:51.691Z,12.60
2022-09-25T16:50:55.899Z,12.56
2022-09-25T16:54:01.605Z,12.43
2022-09-25T16:57:05.442Z,12.34
2022-09-25T17:00:14.950Z,12.22
2022-09-25T17:03:18.668Z,12.11
2022-09-25T17:06:26.352Z,12.17
2022-09-25T17:09:31.696Z,11.89
2022-09-25T17:12:35.780Z,11.68
2022-09-25T17:15:40.652Z,11.55
2022-09-25T17:18:44.513Z,11.48
2022-09-25T17:21:51.383Z,11.39
2022-09-25T17:24:59.297Z,11.27
2022-09-25T17:28:03.548Z,11.24
2022-09-25T17:31:07.499Z,11.21
2022-09-25T17:34:18.002Z,11.19
2022-09-25T17:37:21.763Z,11.23
2022-09-25T17:40:26.962Z,11.11
2022-09-25T17:43:30.794Z,11.07
2022-09-25T17:46:36.273Z,11.00
2022-09-25T17:49:40.094Z,10.94
2022-09-25T17:52:43.705Z,10.85
2022-09-25T17:55:53.461Z,10.76
2022-09-25T17:58:58.080Z,10.66
2022-09-25T18:02:01.814Z,10.58
2022-09-25T18:05:06.146Z,10.52
2022-09-25T18:08:10.039Z,10.42
2022-09-25T18:11:16.112Z,10.33
2022-09-25T18:14:19.787Z,10.25
2022-09-25T18:17:23.428Z,10.18
2022-09-25T18:20:59.730Z,10.09
2022-09-25T18:24:04.151Z,9.99
2022-09-25T18:27:09.308Z,9.92
2022-09-25T18:30:16.367Z,9.86
2022-09-25T18:33:21.958Z,9.79
2022-09-25T18:36:25.812Z,9.69
2022-09-25T18:39:29.493Z,9.63
2022-09-25T18:42:34.957Z,9.57
2022-09-25T18:45:42.128Z,9.51
2022-09-25T18:48:47.858Z,9.46
2022-09-25T18:51:52.975Z,9.39
2022-09-25T18:54:56.548Z,9.30
2022-09-25T18:58:01.659Z,9.25
2022-09-25T19:01:07.872Z,9.22
2022-09-25T19:04:18.361Z,9.15
2022-09-25T19:07:22.163Z,9.06
2022-09-25T19:10:26.229Z,9.00
2022-09-25T19:13:31.168Z,8.94
2022-09-25T19:16:38.300Z,8.90
2022-09-25T19:19:43.943Z,8.85
2022-09-25T19:22:47.837Z,8.80
2022-09-25T19:25:56.073Z,8.74
2022-09-25T19:29:02.404Z,8.69
2022-09-25T19:32:07.538Z,8.65
2022-09-25T19:35:11.697Z,8.63
2022-09-25T19:38:15.350Z,8.60
2022-09-25T19:41:21.980Z,8.55
2022-09-25T19:44:27.208Z,8.50
2022-09-25T19:47:30.854Z,8.46
2022-09-25T19:50:34.478Z,8.41
2022-09-25T19:53:41.162Z,8.38
2022-09-25T19:56:46.258Z,8.34
2022-09-25T19:59:51.545Z,8.27
2022-09-25T20:02:55.273Z,8.26
2022-09-25T20:06:02.736Z,8.21
2022-09-25T20:09:09.905Z,8.16
2022-09-25T20:12:13.569Z,8.13
2022-09-25T20:15:18.621Z,8.10
2022-09-25T20:18:23.191Z,8.06
2022-09-25T20:21:30.114Z,8.05
2022-09-25T20:24:33.852Z,8.01
2022-09-25T20:27:37.379Z,7.98
2022-09-25T20:30:42.508Z,7.96
2022-09-25T20:33:46.108Z,7.93
2022-09-25T20:36:50.232Z,7.88
2022-09-25T20:39:55.043Z,7.87
2022-09-25T20:42:58.638Z,7.86
2022-09-25T20:46:06.984Z,7.81
2022-09-25T20:49:12.352Z,7.76
2022-09-25T20:52:16.065Z,7.72
2022-09-25T20:55:20.171Z,7.69
2022-09-25T20:58:23.860Z,7.66
2022-09-25T21:01:34.691Z,7.64
2022-09-25T21:04:38.630Z,7.65
2022-09-25T21:07:42.181Z,7.65
2022-09-25T21:10:45.851Z,7.64
2022-09-25T21:13:52.873Z,7.63
2022-09-25T21:16:58.558Z,7.64
2022-09-25T21:20:02.849Z,7.65
2022-09-25T21:23:06.438Z,7.65
2022-09-25T21:26:14.093Z,7.65
2022-09-25T21:29:20.472Z,7.65
2022-09-25T21:32:25.541Z,7.59
2022-09-25T21:35:29.097Z,7.64
2022-09-25T21:38:33.371Z,7.70
2022-09-25T21:41:37.650Z,7.62
2022-09-25T21:44:41.258Z,7.60
2022-09-25T21:47:46.342Z,7.58
2022-09-25T21:50:54.332Z,7.57
2022-09-25T21:53:58.499Z,7.60
2022-09-25T21:57:02.067Z,7.62
2022-09-25T22:00:07.567Z,7.55
2022-09-25T22:03:12.582Z,7.54
2022-09-25T22:06:20.087Z,7.56
2022-09-25T22:09:24.719Z,7.57
2022-09-25T22:12:28.289Z,7.54
2022-09-25T22:15:31.869Z,7.52
2022-09-25T22:18:44.512Z,7.50
2022-09-25T22:21:50.783Z,7.51
2022-09-25T22:24:54.324Z,7.54
2022-09-25T22:27:57.944Z,7.60
2022-09-25T22:31:07.160Z,7.55
2022-09-25T22:34:19.874Z,7.56
2022-09-25T22:37:23.372Z,7.61
2022-09-25T22:40:27.080Z,7.67
2022-09-25T22:43:30.642Z,7.77
2022-09-25T22:46:34.379Z,7.80
2022-09-25T22:49:39.362Z,7.87
2022-09-25T22:52:43.020Z,7.99
2022-09-25T22:55:47.815Z,7.99
2022-09-25T22:58:53.960Z,8.01
2022-09-25T23:01:57.571Z,8.06
2022-09-25T23:05:06.424Z,8.10
2022-09-25T23:08:11.035Z,8.13
2022-09-25T23:11:14.789Z,8.18
2022-09-25T23:14:22.754Z,8.17
2022-09-25T23:17:27.272Z,8.21
2022-09-25T23:20:32.320Z,8.25
2022-09-25T23:23:35.919Z,8.29
2022-09-25T23:26:39.596Z,8.32
2022-09-25T23:29:43.221Z,8.35
2022-09-25T23:32:46.848Z,8.39
2022-09-25T23:35:51.835Z,8.35
2022-09-25T23:38:59.445Z,8.35
2022-09-25T23:42:03.136Z,8.37
2022-09-25T23:45:08.307Z,8.40
2022-09-25T23:48:11.843Z,8.36
2022-09-25T23:51:19.358Z,8.36
2022-09-25T23:54:23.074Z,8.37
2022-09-25T23:57:26.654Z,8.39
